createdAt,value
2018-06-27T00:00:39.151Z,14.08
2018-06-27T00:01:38.981Z,14.01
2018-06-27T00:03:32.358Z,14.06
2018-06-27T00:04:32.273Z,13.97
2018-06-27T00:06:25.563Z,13.99
2018-06-27T00:07:25.483Z,13.99
2018-06-27T00:09:18.754Z,13.99
2018-06-27T00:10:18.691Z,13.95
2018-06-27T00:12:12.091Z,13.99
2018-06-27T00:13:11.902Z,13.95
2018-06-27T00:15:05.172Z,13.88
2018-06-27T00:16:05.116Z,13.88
2018-06-27T00:17:58.400Z,13.87
2018-06-27T00:18:58.317Z,13.90
2018-06-27T00:20:51.693Z,13.88
2018-06-27T00:21:51.525Z,13.84
2018-06-27T00:23:44.812Z,13.83
2018-06-27T00:24:44.733Z,13.78
2018-06-27T00:26:38.004Z,13.84
2018-06-27T00:27:37.941Z,13.90
2018-06-27T00:29:31.229Z,13.81
2018-06-27T00:30:31.147Z,13.73
2018-06-27T00:32:24.438Z,13.72
2018-06-27T00:33:24.355Z,13.76
2018-06-27T00:35:17.733Z,13.78
2018-06-27T00:36:17.564Z,13.70
2018-06-27T00:38:10.846Z,13.78
2018-06-27T00:39:10.761Z,13.75
2018-06-27T00:41:04.138Z,13.73
2018-06-27T00:42:03.968Z,13.65
2018-06-27T00:43:57.357Z,13.69
2018-06-27T00:44:57.275Z,13.72
2018-06-27T00:46:50.561Z,13.63
2018-06-27T00:47:50.482Z,13.63
2018-06-27T00:49:43.770Z,13.63
2018-06-27T00:50:43.688Z,13.62
2018-06-27T00:52:36.962Z,13.66
2018-06-27T00:53:36.894Z,13.57
2018-06-27T00:55:30.290Z,13.63
2018-06-27T00:56:30.101Z,13.55
2018-06-27T00:58:23.394Z,13.62
2018-06-27T00:59:23.308Z,13.63
2018-06-27T01:01:16.579Z,13.62
2018-06-27T01:02:16.514Z,13.58
2018-06-27T01:04:09.910Z,13.60
2018-06-27T01:05:09.722Z,13.55
2018-06-27T01:07:02.990Z,13.55
2018-06-27T01:08:02.926Z,13.50
2018-06-27T01:09:56.221Z,13.57
2018-06-27T01:10:56.132Z,13.51
2018-06-27T01:12:49.412Z,13.51
2018-06-27T01:13:49.339Z,13.42
2018-06-27T01:15:42.736Z,13.42
2018-06-27T01:16:42.546Z,13.48
2018-06-27T01:18:35.943Z,13.40
2018-06-27T01:19:35.748Z,13.44
2018-06-27T01:21:29.125Z,13.32
2018-06-27T01:22:28.955Z,13.35
2018-06-27T01:24:22.248Z,13.45
2018-06-27T01:25:22.165Z,13.31
2018-06-27T01:27:15.430Z,13.35
2018-06-27T01:28:15.371Z,13.32
2018-06-27T01:30:08.762Z,13.32
2018-06-27T01:31:08.572Z,13.32
2018-06-27T01:33:01.847Z,13.16
2018-06-27T01:34:01.800Z,13.14
2018-06-27T01:35:55.067Z,13.16
2018-06-27T01:36:54.983Z,13.17
2018-06-27T01:38:48.338Z,13.16
2018-06-27T01:39:48.272Z,13.19
2018-06-27T01:41:41.670Z,13.17
2018-06-27T01:42:41.477Z,13.10
2018-06-27T01:44:34.768Z,13.13
2018-06-27T01:45:34.688Z,13.11
2018-06-27T01:47:27.956Z,13.14
2018-06-27T01:48:27.895Z,13.09
2018-06-27T01:50:21.181Z,13.09
2018-06-27T01:51:21.095Z,13.09
2018-06-27T01:53:14.370Z,13.02
2018-06-27T01:54:14.299Z,12.95
2018-06-27T01:56:07.587Z,13.01
2018-06-27T01:57:07.505Z,12.98
2018-06-27T01:59:00.775Z,12.98
2018-06-27T02:00:00.710Z,13.02
2018-06-27T02:01:53.998Z,12.96
2018-06-27T02:02:53.914Z,12.95
2018-06-27T02:04:47.205Z,12.96
2018-06-27T02:05:47.118Z,12.98
2018-06-27T02:07:40.391Z,12.98
2018-06-27T02:08:40.326Z,12.95
2018-06-27T02:10:33.622Z,12.98
2018-06-27T02:11:33.539Z,12.98
2018-06-27T02:13:26.920Z,12.95
2018-06-27T02:14:26.747Z,12.91
2018-06-27T02:16:20.036Z,12.92
2018-06-27T02:17:19.949Z,12.91
2018-06-27T02:19:13.220Z,12.91
2018-06-27T02:20:13.152Z,12.95
2018-06-27T02:22:06.448Z,12.88
2018-06-27T02:23:06.361Z,12.89
2018-06-27T02:24:59.754Z,12.89
2018-06-27T02:25:59.567Z,12.86
2018-06-27T02:27:52.844Z,12.80
2018-06-27T02:28:52.759Z,12.89
2018-06-27T02:30:46.048Z,12.83
2018-06-27T02:31:45.965Z,12.77
2018-06-27T02:33:39.338Z,12.78
2018-06-27T02:34:39.272Z,12.77
2018-06-27T02:36:32.560Z,12.74
2018-06-27T02:37:32.475Z,12.74
2018-06-27T02:39:25.749Z,12.73
2018-06-27T02:40:25.686Z,12.76
2018-06-27T02:42:18.974Z,12.65
2018-06-27T02:43:18.896Z,12.71
2018-06-27T02:45:12.157Z,12.70
2018-06-27T02:46:12.098Z,12.70
2018-06-27T02:48:05.383Z,12.69
2018-06-27T02:49:05.297Z,12.65
2018-06-27T02:50:58.585Z,12.76
2018-06-27T02:51:58.501Z,12.63
2018-06-27T02:53:51.772Z,12.69
2018-06-27T02:54:51.706Z,12.69
2018-06-27T02:56:44.993Z,12.63
2018-06-27T02:57:44.912Z,12.65
2018-06-27T02:59:38.177Z,12.65
2018-06-27T03:00:38.116Z,12.62
2018-06-27T03:02:31.443Z,12.65
2018-06-27T03:03:31.317Z,12.69
2018-06-27T03:05:24.695Z,12.61
2018-06-27T03:06:24.523Z,12.63
2018-06-27T03:08:17.806Z,12.62
2018-06-27T03:09:17.719Z,12.62
2018-06-27T03:11:11.129Z,12.62
2018-06-27T03:12:10.921Z,12.61
2018-06-27T03:14:04.197Z,12.65
2018-06-27T03:15:04.129Z,12.65
2018-06-27T03:16:57.523Z,12.66
2018-06-27T03:17:57.328Z,12.58
2018-06-27T03:19:50.707Z,12.59
2018-06-27T03:20:50.534Z,12.58
2018-06-27T03:22:43.825Z,12.61
2018-06-27T03:23:43.736Z,12.51
2018-06-27T03:25:37.006Z,12.58
2018-06-27T03:26:36.940Z,12.66
2018-06-27T03:28:30.221Z,12.56
2018-06-27T03:29:30.138Z,12.61
2018-06-27T03:31:23.442Z,12.53
2018-06-27T03:32:23.341Z,12.61
2018-06-27T03:34:16.612Z,12.59
2018-06-27T03:35:16.548Z,12.69
2018-06-27T03:37:09.835Z,12.59
2018-06-27T03:38:09.749Z,12.61
2018-06-27T03:40:03.020Z,12.58
2018-06-27T03:41:02.952Z,12.65
2018-06-27T03:42:56.249Z,12.69
2018-06-27T03:43:56.155Z,12.63
2018-06-27T03:45:49.429Z,12.55
2018-06-27T03:46:49.362Z,12.53
2018-06-27T03:48:42.651Z,12.56
2018-06-27T03:49:42.564Z,12.52
2018-06-27T03:51:35.834Z,12.63
2018-06-27T03:52:35.770Z,12.56
2018-06-27T03:54:29.060Z,12.70
2018-06-27T03:55:28.972Z,12.56
2018-06-27T03:57:22.263Z,12.53
2018-06-27T03:58:22.180Z,12.71
2018-06-27T04:00:15.447Z,12.51
2018-06-27T04:01:15.383Z,12.65
2018-06-27T04:03:08.671Z,12.55
2018-06-27T04:04:08.590Z,12.58
2018-06-27T04:06:01.962Z,12.62
2018-06-27T04:07:01.791Z,12.66
2018-06-27T04:08:55.083Z,12.63
2018-06-27T04:09:54.994Z,12.71
2018-06-27T04:11:48.371Z,12.74
2018-06-27T04:12:48.263Z,12.76
2018-06-27T04:14:41.502Z,12.76
2018-06-27T04:15:41.417Z,12.88
2018-06-27T04:17:34.711Z,12.84
2018-06-27T04:18:34.622Z,12.88
2018-06-27T04:20:27.895Z,12.89
2018-06-27T04:21:27.828Z,12.86
2018-06-27T04:23:21.225Z,12.86
2018-06-27T04:24:21.033Z,12.94
2018-06-27T04:26:14.409Z,12.89
2018-06-27T04:27:14.237Z,12.81
2018-06-27T04:29:07.526Z,12.94
2018-06-27T04:30:07.443Z,12.99
2018-06-27T04:32:00.713Z,12.96
2018-06-27T04:33:00.647Z,12.99
2018-06-27T04:34:53.936Z,13.11
2018-06-27T04:35:53.895Z,13.03
2018-06-27T04:37:47.116Z,13.13
2018-06-27T04:38:47.050Z,13.16
2018-06-27T04:40:40.448Z,13.20
2018-06-27T04:41:40.257Z,13.39
2018-06-27T04:43:33.636Z,13.35
2018-06-27T04:44:33.464Z,13.42
2018-06-27T04:46:26.754Z,13.45
2018-06-27T04:47:26.672Z,13.47
2018-06-27T04:49:19.961Z,13.54
2018-06-27T04:50:19.875Z,13.58
2018-06-27T04:52:13.255Z,13.55
2018-06-27T04:53:13.085Z,13.53
2018-06-27T04:55:06.378Z,13.62
2018-06-27T04:56:06.295Z,13.60
2018-06-27T04:57:59.561Z,13.54
2018-06-27T04:58:59.494Z,13.55
2018-06-27T05:00:52.787Z,13.58
2018-06-27T05:01:52.702Z,13.58
2018-06-27T05:03:45.975Z,13.53
2018-06-27T05:04:45.909Z,13.60
2018-06-27T05:06:39.203Z,13.73
2018-06-27T05:07:39.119Z,13.69
2018-06-27T05:09:32.515Z,13.62
2018-06-27T05:10:32.325Z,13.70
2018-06-27T05:12:25.602Z,13.86
2018-06-27T05:13:25.535Z,13.88
2018-06-27T05:15:18.824Z,13.93
2018-06-27T05:16:18.742Z,13.86
2018-06-27T05:18:12.006Z,14.03
2018-06-27T05:19:11.941Z,13.99
2018-06-27T05:21:05.338Z,14.08
2018-06-27T05:22:05.150Z,14.09
2018-06-27T05:23:58.422Z,14.09
2018-06-27T05:24:58.357Z,14.28
2018-06-27T05:26:51.658Z,14.33
2018-06-27T05:27:51.573Z,14.36
2018-06-27T05:29:44.972Z,14.21
2018-06-27T05:30:44.781Z,14.27
2018-06-27T05:32:38.056Z,14.39
2018-06-27T05:33:37.992Z,14.48
2018-06-27T05:35:31.392Z,14.45
2018-06-27T05:36:31.201Z,14.60
2018-06-27T05:38:24.483Z,14.79
2018-06-27T05:39:24.413Z,14.67
2018-06-27T05:41:17.705Z,14.66
2018-06-27T05:42:17.622Z,14.64
2018-06-27T05:44:10.942Z,14.57
2018-06-27T05:45:10.835Z,14.66
2018-06-27T05:47:04.126Z,14.71
2018-06-27T05:48:04.044Z,14.74
2018-06-27T05:49:57.337Z,14.77
2018-06-27T05:50:57.274Z,14.83
2018-06-27T05:52:50.671Z,14.87
2018-06-27T05:53:50.486Z,15.10
2018-06-27T05:55:43.883Z,15.05
2018-06-27T05:56:43.697Z,15.07
2018-06-27T05:58:36.963Z,15.07
2018-06-27T05:59:36.899Z,15.07
2018-06-27T06:01:30.298Z,15.13
2018-06-27T06:02:30.112Z,15.23
2018-06-27T06:04:23.394Z,15.31
2018-06-27T06:05:23.322Z,15.37
2018-06-27T06:07:17.220Z,15.41
2018-06-27T06:08:16.534Z,15.49
2018-06-27T06:10:09.830Z,15.65
2018-06-27T06:11:09.753Z,15.70
2018-06-27T06:13:03.045Z,15.96
2018-06-27T06:14:02.958Z,16.22
2018-06-27T06:15:57.103Z,17.06
2018-06-27T06:16:57.024Z,17.49
2018-06-27T06:18:50.304Z,18.20
2018-06-27T06:19:50.259Z,18.19
2018-06-27T06:21:43.547Z,18.71
2018-06-27T06:22:43.475Z,18.79
2018-06-27T06:24:36.763Z,19.30
2018-06-27T06:25:36.707Z,18.93
2018-06-27T06:27:30.016Z,19.31
2018-06-27T06:28:29.943Z,19.38
2018-06-27T06:30:23.259Z,19.31
2018-06-27T06:31:23.182Z,18.84
2018-06-27T06:33:16.477Z,18.99
2018-06-27T06:34:16.425Z,19.30
2018-06-27T06:36:09.738Z,19.16
2018-06-27T06:37:09.667Z,19.28
2018-06-27T06:39:02.963Z,19.61
2018-06-27T06:40:02.916Z,19.53
2018-06-27T06:41:56.227Z,19.83
2018-06-27T06:42:56.155Z,20.19
2018-06-27T06:44:49.455Z,20.40
2018-06-27T06:45:49.401Z,20.66
2018-06-27T06:47:42.721Z,20.81
2018-06-27T06:48:42.660Z,20.75
2018-06-27T06:50:35.949Z,19.97
2018-06-27T06:51:35.900Z,20.15
2018-06-27T06:53:29.217Z,19.89
2018-06-27T06:54:29.148Z,19.87
2018-06-27T06:56:22.471Z,20.27
2018-06-27T06:57:22.401Z,20.12
2018-06-27T06:59:15.795Z,20.49
2018-06-27T07:00:15.647Z,20.48
2018-06-27T07:02:08.970Z,21.00
2018-06-27T07:03:08.898Z,21.08
2018-06-27T07:05:02.337Z,21.18
2018-06-27T07:06:02.148Z,21.40
2018-06-27T07:07:55.457Z,21.82
2018-06-27T07:08:55.391Z,22.22
2018-06-27T07:10:49.291Z,22.07
2018-06-27T07:11:48.640Z,21.71
2018-06-27T07:13:41.965Z,22.08
2018-06-27T07:14:41.896Z,21.97
2018-06-27T07:16:35.201Z,21.52
2018-06-27T07:17:35.147Z,20.93
2018-06-27T07:19:28.471Z,21.06
2018-06-27T07:20:28.400Z,21.08
2018-06-27T07:22:21.722Z,20.85
2018-06-27T07:23:21.650Z,20.88
2018-06-27T07:25:14.955Z,21.51
2018-06-27T07:26:14.906Z,21.73
2018-06-27T07:28:08.224Z,21.38
2018-06-27T07:29:08.151Z,21.41
2018-06-27T07:31:01.545Z,21.89
2018-06-27T07:32:01.401Z,21.96
2018-06-27T07:33:54.721Z,21.99
2018-06-27T07:34:54.651Z,22.16
2018-06-27T07:36:48.068Z,21.80
2018-06-27T07:37:47.894Z,21.76
2018-06-27T07:39:41.215Z,21.97
2018-06-27T07:40:41.151Z,21.90
2018-06-27T07:42:34.441Z,22.07
2018-06-27T07:43:34.381Z,22.30
2018-06-27T07:45:28.555Z,22.78
2018-06-27T07:46:28.487Z,23.10
2018-06-27T07:48:21.781Z,22.23
2018-06-27T07:49:21.728Z,22.41
2018-06-27T07:51:16.146Z,22.59
2018-06-27T07:52:15.980Z,22.09
2018-06-27T07:54:09.280Z,21.93
2018-06-27T07:55:09.234Z,22.18
2018-06-27T07:57:02.645Z,21.89
2018-06-27T07:58:02.479Z,21.78
2018-06-27T07:59:55.799Z,22.05
2018-06-27T08:00:55.732Z,21.76
2018-06-27T08:02:49.064Z,21.97
2018-06-27T08:03:48.993Z,22.39
2018-06-27T08:05:42.347Z,22.52
2018-06-27T08:06:42.297Z,22.52
2018-06-27T08:08:35.608Z,22.44
2018-06-27T08:09:35.539Z,22.23
2018-06-27T08:11:28.936Z,21.48
2018-06-27T08:12:28.793Z,21.01
2018-06-27T08:14:22.126Z,21.25
2018-06-27T08:15:22.055Z,21.27
2018-06-27T08:17:15.450Z,21.01
2018-06-27T08:18:15.288Z,21.15
2018-06-27T08:20:08.592Z,21.66
2018-06-27T08:21:08.692Z,21.80
2018-06-27T08:23:01.811Z,22.05
2018-06-27T08:24:01.752Z,22.22
2018-06-27T08:25:55.120Z,22.29
2018-06-27T08:26:54.985Z,22.05
2018-06-27T08:28:48.365Z,21.49
2018-06-27T08:29:48.291Z,21.53
2018-06-27T08:31:41.684Z,21.71
2018-06-27T08:32:41.521Z,21.85
2018-06-27T08:34:34.820Z,21.37
2018-06-27T08:35:34.749Z,21.73
2018-06-27T08:37:28.034Z,22.23
2018-06-27T08:38:27.977Z,22.07
2018-06-27T08:40:21.278Z,21.93
2018-06-27T08:41:21.210Z,22.42
2018-06-27T08:43:14.492Z,23.52
2018-06-27T08:44:14.437Z,23.63
2018-06-27T08:46:07.737Z,23.53
2018-06-27T08:47:07.675Z,23.72
2018-06-27T08:49:00.967Z,24.12
2018-06-27T08:50:00.943Z,24.45
2018-06-27T08:51:54.176Z,24.97
2018-06-27T08:52:54.123Z,24.70
2018-06-27T08:54:47.425Z,24.04
2018-06-27T08:55:47.359Z,23.79
2018-06-27T08:57:40.637Z,23.15
2018-06-27T08:58:40.588Z,22.94
2018-06-27T09:00:33.886Z,23.24
2018-06-27T09:01:33.813Z,23.15
2018-06-27T09:03:27.097Z,23.67
2018-06-27T09:04:27.043Z,23.66
2018-06-27T09:06:20.368Z,23.70
2018-06-27T09:07:20.295Z,24.12
2018-06-27T09:09:13.594Z,23.92
2018-06-27T09:10:13.523Z,23.94
2018-06-27T09:12:06.827Z,24.67
2018-06-27T09:13:06.757Z,25.05
2018-06-27T09:15:00.167Z,23.94
2018-06-27T09:15:59.987Z,24.24
2018-06-27T09:17:53.272Z,24.27
2018-06-27T09:18:53.219Z,24.92
2018-06-27T09:20:46.535Z,24.70
2018-06-27T09:21:46.464Z,24.87
2018-06-27T09:23:39.750Z,25.42
2018-06-27T09:24:39.700Z,25.91
2018-06-27T09:26:33.006Z,25.33
2018-06-27T09:27:32.928Z,25.08
2018-06-27T09:29:26.218Z,24.26
2018-06-27T09:30:26.161Z,24.15
2018-06-27T09:32:19.467Z,25.14
2018-06-27T09:33:19.394Z,25.79
2018-06-27T09:35:12.699Z,26.78
2018-06-27T09:36:12.625Z,26.68
2018-06-27T09:38:05.912Z,26.32
2018-06-27T09:39:05.859Z,26.50
2018-06-27T09:40:59.165Z,25.49
2018-06-27T09:41:59.151Z,25.82
2018-06-27T09:43:52.379Z,26.00
2018-06-27T09:44:52.325Z,26.22
2018-06-27T09:46:45.630Z,25.54
2018-06-27T09:47:45.559Z,25.57
2018-06-27T09:49:38.846Z,26.32
2018-06-27T09:50:38.796Z,26.07
2018-06-27T09:52:32.208Z,25.52
2018-06-27T09:53:32.027Z,25.81
2018-06-27T09:55:25.456Z,26.30
2018-06-27T09:56:25.265Z,26.50
2018-06-27T09:58:18.553Z,26.99
2018-06-27T09:59:18.497Z,27.81
2018-06-27T10:01:11.913Z,27.76
2018-06-27T10:02:11.744Z,27.61
2018-06-27T10:04:05.032Z,27.27
2018-06-27T10:05:04.979Z,26.67
2018-06-27T10:06:58.394Z,26.75
2018-06-27T10:07:58.321Z,26.96
2018-06-27T10:09:51.595Z,27.41
2018-06-27T10:10:51.532Z,26.72
2018-06-27T10:12:44.841Z,27.71
2018-06-27T10:13:44.770Z,27.62
2018-06-27T10:15:38.203Z,27.55
2018-06-27T10:16:38.011Z,27.19
2018-06-27T10:18:31.298Z,26.81
2018-06-27T10:19:31.248Z,27.13
2018-06-27T10:21:24.556Z,27.65
2018-06-27T10:22:24.567Z,27.68
2018-06-27T10:24:17.780Z,28.60
2018-06-27T10:25:17.726Z,28.91
2018-06-27T10:27:11.043Z,29.66
2018-06-27T10:28:10.969Z,29.92
2018-06-27T10:30:04.346Z,28.86
2018-06-27T10:31:04.299Z,27.37
2018-06-27T10:32:57.608Z,27.57
2018-06-27T10:33:57.537Z,27.42
2018-06-27T10:35:51.043Z,28.57
2018-06-27T10:36:50.788Z,28.08
2018-06-27T10:38:44.070Z,28.03
2018-06-27T10:39:44.024Z,27.64
2018-06-27T10:41:37.333Z,27.80
2018-06-27T10:42:37.257Z,27.94
2018-06-27T10:44:30.577Z,27.83
2018-06-27T10:45:30.501Z,26.68
2018-06-27T10:47:23.815Z,27.08
2018-06-27T10:48:23.742Z,27.41
2018-06-27T10:50:17.031Z,27.13
2018-06-27T10:51:16.981Z,26.54
2018-06-27T10:53:10.399Z,25.37
2018-06-27T10:54:10.301Z,25.39
2018-06-27T10:56:03.697Z,25.91
2018-06-27T10:57:03.546Z,26.57
2018-06-27T10:58:56.960Z,27.00
2018-06-27T10:59:56.793Z,26.87
2018-06-27T11:01:50.209Z,26.44
2018-06-27T11:02:50.031Z,26.35
2018-06-27T11:04:43.332Z,26.69
2018-06-27T11:05:43.279Z,26.32
2018-06-27T11:07:36.587Z,26.63
2018-06-27T11:08:36.515Z,26.86
2018-06-27T11:10:29.817Z,26.26
2018-06-27T11:11:29.767Z,26.59
2018-06-27T11:13:23.084Z,27.04
2018-06-27T11:14:23.016Z,26.61
2018-06-27T11:16:16.350Z,26.22
2018-06-27T11:17:16.299Z,26.61
2018-06-27T11:19:09.614Z,26.54
2018-06-27T11:20:09.574Z,26.24
2018-06-27T11:22:02.843Z,26.76
2018-06-27T11:23:02.790Z,26.93
2018-06-27T11:24:56.205Z,27.13
2018-06-27T11:25:56.040Z,26.76
2018-06-27T11:27:49.350Z,26.47
2018-06-27T11:28:49.279Z,26.68
2018-06-27T11:30:42.577Z,26.89
2018-06-27T11:31:42.526Z,26.97
2018-06-27T11:33:35.941Z,26.19
2018-06-27T11:34:35.774Z,25.64
2018-06-27T11:36:29.171Z,25.49
2018-06-27T11:37:29.011Z,25.85
2018-06-27T11:39:22.367Z,25.84
2018-06-27T11:40:22.297Z,25.57
2018-06-27T11:42:15.603Z,25.52
2018-06-27T11:43:15.603Z,25.63
2018-06-27T11:45:08.864Z,25.45
2018-06-27T11:46:08.793Z,25.64
2018-06-27T11:48:02.104Z,25.62
2018-06-27T11:49:02.031Z,25.60
2018-06-27T11:50:55.328Z,25.52
2018-06-27T11:51:55.273Z,25.63
2018-06-27T11:53:48.588Z,25.81
2018-06-27T11:54:48.515Z,25.47
2018-06-27T11:56:41.813Z,25.26
2018-06-27T11:57:41.756Z,25.29
2018-06-27T11:59:35.072Z,25.47
2018-06-27T12:00:34.999Z,25.57
2018-06-27T12:02:28.348Z,25.82
2018-06-27T12:03:28.294Z,25.60
2018-06-27T12:05:21.594Z,25.62
2018-06-27T12:06:21.520Z,25.70
2018-06-27T12:08:14.815Z,26.24
2018-06-27T12:09:14.764Z,26.34
2018-06-27T12:11:09.171Z,26.67
2018-06-27T12:12:09.004Z,26.31
2018-06-27T12:14:02.367Z,25.52
2018-06-27T12:15:02.289Z,25.41
2018-06-27T12:16:55.736Z,25.81
2018-06-27T12:17:55.540Z,26.09
2018-06-27T12:19:48.853Z,25.74
2018-06-27T12:20:48.782Z,25.59
2018-06-27T12:22:42.073Z,25.75
2018-06-27T12:23:42.020Z,25.51
2018-06-27T12:25:35.332Z,25.51
2018-06-27T12:26:35.261Z,25.39
2018-06-27T12:28:28.543Z,25.34
2018-06-27T12:29:28.491Z,25.52
2018-06-27T12:31:21.800Z,25.23
2018-06-27T12:32:21.753Z,25.26
2018-06-27T12:34:15.137Z,25.48
2018-06-27T12:35:14.965Z,25.79
2018-06-27T12:37:08.348Z,25.91
2018-06-27T12:38:08.292Z,26.09
2018-06-27T12:40:01.617Z,26.27
2018-06-27T12:41:01.535Z,26.07
2018-06-27T12:42:54.832Z,26.01
2018-06-27T12:43:54.770Z,25.88
2018-06-27T12:45:48.081Z,25.75
2018-06-27T12:46:48.008Z,25.76
2018-06-27T12:48:41.301Z,25.66
2018-06-27T12:49:41.245Z,25.34
2018-06-27T12:51:34.558Z,25.37
2018-06-27T12:52:34.483Z,25.75
2018-06-27T12:54:27.808Z,26.03
2018-06-27T12:55:27.727Z,25.88
2018-06-27T12:57:21.019Z,25.54
2018-06-27T12:58:20.964Z,25.39
2018-06-27T13:00:14.367Z,25.54
2018-06-27T13:01:14.292Z,25.82
2018-06-27T13:03:07.583Z,25.91
2018-06-27T13:04:07.536Z,25.67
2018-06-27T13:06:00.944Z,25.96
2018-06-27T13:07:00.845Z,26.00
2018-06-27T13:08:54.752Z,25.76
2018-06-27T13:09:54.026Z,25.81
2018-06-27T13:11:48.365Z,25.81
2018-06-27T13:12:48.291Z,25.82
2018-06-27T13:14:41.618Z,25.85
2018-06-27T13:15:41.580Z,26.00
2018-06-27T13:17:34.840Z,25.97
2018-06-27T13:18:34.768Z,26.00
2018-06-27T13:20:28.099Z,25.99
2018-06-27T13:21:28.007Z,26.11
2018-06-27T13:23:21.299Z,26.32
2018-06-27T13:24:21.243Z,26.12
2018-06-27T13:26:14.556Z,26.32
2018-06-27T13:27:14.483Z,26.37
2018-06-27T13:29:07.777Z,25.97
2018-06-27T13:30:07.722Z,26.01
2018-06-27T13:32:01.036Z,26.16
2018-06-27T13:33:00.965Z,26.07
2018-06-27T13:34:54.392Z,25.97
2018-06-27T13:35:54.297Z,25.97
2018-06-27T13:37:47.598Z,26.17
2018-06-27T13:38:47.527Z,26.31
2018-06-27T13:40:40.838Z,25.89
2018-06-27T13:41:40.764Z,26.06
2018-06-27T13:43:34.155Z,26.47
2018-06-27T13:44:34.003Z,26.64
2018-06-27T13:46:28.368Z,26.49
2018-06-27T13:47:28.295Z,26.56
2018-06-27T13:49:22.587Z,26.63
2018-06-27T13:50:22.533Z,26.42
2018-06-27T13:52:15.842Z,26.47
2018-06-27T13:53:15.773Z,26.47
2018-06-27T13:55:09.068Z,26.31
2018-06-27T13:56:09.008Z,26.49
2018-06-27T13:58:02.377Z,26.30
2018-06-27T13:59:02.305Z,26.35
2018-06-27T14:00:55.606Z,26.31
2018-06-27T14:01:55.546Z,26.23
2018-06-27T14:03:48.859Z,26.06
2018-06-27T14:04:48.783Z,26.00
2018-06-27T14:06:42.107Z,26.15
2018-06-27T14:07:42.027Z,26.06
2018-06-27T14:09:35.322Z,25.91
2018-06-27T14:10:35.271Z,25.82
2018-06-27T14:12:28.681Z,25.81
2018-06-27T14:13:28.508Z,25.79
2018-06-27T14:15:21.901Z,26.00
2018-06-27T14:16:21.746Z,26.11
2018-06-27T14:18:16.068Z,26.38
2018-06-27T14:19:15.990Z,26.56
2018-06-27T14:21:09.387Z,26.71
2018-06-27T14:22:09.239Z,26.64
2018-06-27T14:24:02.586Z,26.50
2018-06-27T14:25:02.475Z,26.30
2018-06-27T14:26:55.769Z,26.31
2018-06-27T14:27:55.717Z,26.26
2018-06-27T14:29:49.028Z,26.35
2018-06-27T14:30:48.956Z,26.52
2018-06-27T14:32:42.365Z,26.54
2018-06-27T14:33:42.293Z,26.39
2018-06-27T14:35:35.686Z,25.88
2018-06-27T14:36:35.538Z,25.70
2018-06-27T14:38:28.943Z,25.49
2018-06-27T14:39:28.773Z,25.39
2018-06-27T14:41:22.072Z,25.37
2018-06-27T14:42:22.015Z,25.49
2018-06-27T14:44:15.335Z,25.86
2018-06-27T14:45:15.252Z,26.04
2018-06-27T14:47:08.550Z,26.47
2018-06-27T14:48:08.491Z,26.53
2018-06-27T14:50:01.804Z,26.59
2018-06-27T14:51:01.732Z,26.24
2018-06-27T14:52:55.051Z,25.94
2018-06-27T14:53:54.974Z,25.96
2018-06-27T14:55:48.365Z,25.78
2018-06-27T14:56:48.292Z,25.84
2018-06-27T14:58:41.605Z,26.01
2018-06-27T14:59:41.604Z,26.15
2018-06-27T15:01:34.829Z,26.07
2018-06-27T15:02:34.776Z,25.99
2018-06-27T15:04:28.085Z,26.24
2018-06-27T15:05:28.015Z,26.26
2018-06-27T15:07:21.310Z,26.54
2018-06-27T15:08:21.254Z,26.54
2018-06-27T15:10:15.171Z,26.47
2018-06-27T15:11:14.493Z,26.34
2018-06-27T15:13:07.816Z,26.30
2018-06-27T15:14:07.732Z,26.42
2018-06-27T15:16:01.125Z,26.22
2018-06-27T15:17:00.968Z,26.01
2018-06-27T15:18:54.381Z,26.07
2018-06-27T15:19:54.297Z,26.09
2018-06-27T15:21:47.588Z,26.11
2018-06-27T15:22:47.531Z,26.23
2018-06-27T15:24:40.845Z,25.97
2018-06-27T15:25:40.772Z,25.99
2018-06-27T15:27:34.062Z,26.07
2018-06-27T15:28:34.094Z,26.32
2018-06-27T15:30:27.323Z,26.61
2018-06-27T15:31:27.257Z,26.52
2018-06-27T15:33:20.546Z,26.47
2018-06-27T15:34:20.490Z,26.44
2018-06-27T15:36:13.804Z,26.72
2018-06-27T15:37:13.730Z,26.82
2018-06-27T15:39:07.040Z,27.00
2018-06-27T15:40:06.967Z,27.00
2018-06-27T15:42:00.348Z,26.90
2018-06-27T15:43:00.296Z,26.99
2018-06-27T15:44:53.637Z,26.76
2018-06-27T15:45:53.536Z,26.71
2018-06-27T15:47:46.854Z,26.39
2018-06-27T15:48:46.780Z,26.12
2018-06-27T15:50:40.184Z,26.11
2018-06-27T15:51:40.014Z,26.09
2018-06-27T15:53:33.309Z,26.06
2018-06-27T15:54:33.255Z,26.19
2018-06-27T15:56:26.676Z,26.00
2018-06-27T15:57:26.495Z,26.24
2018-06-27T15:59:19.806Z,26.61
2018-06-27T16:00:19.758Z,26.67
2018-06-27T16:02:13.049Z,26.84
2018-06-27T16:03:12.974Z,26.69
2018-06-27T16:05:06.369Z,26.60
2018-06-27T16:06:06.296Z,26.64
2018-06-27T16:07:59.580Z,26.64
2018-06-27T16:08:59.526Z,26.69
2018-06-27T16:10:52.838Z,26.60
2018-06-27T16:11:52.776Z,26.64
2018-06-27T16:13:46.058Z,26.67
2018-06-27T16:14:46.005Z,26.60
2018-06-27T16:16:39.321Z,26.74
2018-06-27T16:17:39.247Z,26.89
2018-06-27T16:19:32.540Z,26.94
2018-06-27T16:20:32.496Z,27.04
2018-06-27T16:22:25.807Z,27.00
2018-06-27T16:23:25.727Z,27.15
2018-06-27T16:25:19.060Z,27.15
2018-06-27T16:26:18.988Z,26.93
2018-06-27T16:28:12.346Z,26.79
2018-06-27T16:29:12.296Z,26.61
2018-06-27T16:31:05.708Z,26.12
2018-06-27T16:32:05.540Z,26.04
2018-06-27T16:33:58.833Z,26.15
2018-06-27T16:34:58.775Z,26.17
2018-06-27T16:36:52.159Z,26.22
2018-06-27T16:37:52.023Z,26.16
2018-06-27T16:39:45.411Z,26.26
2018-06-27T16:40:45.258Z,26.45
2018-06-27T16:42:38.564Z,26.53
2018-06-27T16:43:38.504Z,26.71
2018-06-27T16:45:32.383Z,26.74
2018-06-27T16:46:31.730Z,26.84
2018-06-27T16:48:25.141Z,26.97
2018-06-27T16:49:24.961Z,27.18
2018-06-27T16:51:18.538Z,27.11
2018-06-27T16:52:18.303Z,27.12
2018-06-27T16:54:11.588Z,26.74
2018-06-27T16:55:11.539Z,26.68
2018-06-27T16:57:04.894Z,26.57
2018-06-27T16:58:04.801Z,26.68
2018-06-27T16:59:58.080Z,26.54
2018-06-27T17:00:58.087Z,26.45
2018-06-27T17:02:51.425Z,26.49
2018-06-27T17:03:51.254Z,26.50
2018-06-27T17:05:44.547Z,26.44
2018-06-27T17:06:44.488Z,26.24
2018-06-27T17:08:37.797Z,26.09
2018-06-27T17:09:37.723Z,26.01
2018-06-27T17:11:31.017Z,26.01
2018-06-27T17:12:30.962Z,25.76
2018-06-27T17:14:24.365Z,25.63
2018-06-27T17:15:24.295Z,25.62
2018-06-27T17:17:17.604Z,25.62
2018-06-27T17:18:17.528Z,25.70
2018-06-27T17:20:10.836Z,25.66
2018-06-27T17:21:10.772Z,25.75
2018-06-27T17:23:04.086Z,25.78
2018-06-27T17:24:04.009Z,25.79
2018-06-27T17:25:57.312Z,25.78
2018-06-27T17:26:57.257Z,25.82
2018-06-27T17:28:50.569Z,25.82
2018-06-27T17:29:50.502Z,25.93
2018-06-27T17:31:44.807Z,25.79
2018-06-27T17:32:44.746Z,25.82
2018-06-27T17:34:38.059Z,25.86
2018-06-27T17:35:37.981Z,25.82
2018-06-27T17:37:31.295Z,25.81
2018-06-27T17:38:31.233Z,25.81
2018-06-27T17:40:24.548Z,25.67
2018-06-27T17:41:24.476Z,25.69
2018-06-27T17:43:17.783Z,25.60
2018-06-27T17:44:17.709Z,25.60
2018-06-27T17:46:11.000Z,25.42
2018-06-27T17:47:10.945Z,25.39
2018-06-27T17:49:04.856Z,25.27
2018-06-27T17:50:04.176Z,25.30
2018-06-27T17:51:57.571Z,25.26
2018-06-27T17:52:57.413Z,25.30
2018-06-27T17:54:50.725Z,25.32
2018-06-27T17:55:50.652Z,25.37
2018-06-27T17:57:43.941Z,25.30
2018-06-27T17:58:43.890Z,25.32
2018-06-27T18:00:37.195Z,25.38
2018-06-27T18:01:37.153Z,25.37
2018-06-27T18:03:30.411Z,25.38
2018-06-27T18:04:30.356Z,25.34
2018-06-27T18:06:23.665Z,25.32
2018-06-27T18:07:23.592Z,25.34
2018-06-27T18:09:16.905Z,25.30
2018-06-27T18:10:16.830Z,25.29
2018-06-27T18:12:10.120Z,25.23
2018-06-27T18:13:10.091Z,25.23
2018-06-27T18:15:03.473Z,25.26
2018-06-27T18:16:03.299Z,25.24
2018-06-27T18:17:56.581Z,25.17
2018-06-27T18:18:56.525Z,25.19
2018-06-27T18:20:49.842Z,25.22
2018-06-27T18:21:49.762Z,25.07
2018-06-27T18:23:43.063Z,25.00
2018-06-27T18:24:42.996Z,25.02
2018-06-27T18:26:36.305Z,25.05
2018-06-27T18:27:36.230Z,25.11
2018-06-27T18:29:29.544Z,25.00
2018-06-27T18:30:29.464Z,25.00
2018-06-27T18:32:22.754Z,24.97
2018-06-27T18:33:22.699Z,24.96
2018-06-27T18:35:16.009Z,24.83